sensor_id;sensor_type;location;lat;lon;timestamp;pressure;altitude;pressure_sealevel;temperature;humidity
49515;BME280;35415;47.870;16.058;2023-03-22T00:02:12;97235.03;;;7.34;87.53
49515;BME280;35415;47.870;16.058;2023-03-22T00:04:42;97158.41;;;6.84;87.37
49515;BME280;35415;47.870;16.058;2023-03-22T00:07:12;97201.06;;;7.12;87.67
49515;BME280;35415;47.870;16.058;2023-03-22T00:09:39;97209.06;;;7.12;87.45
49515;BME280;35415;47.870;16.058;2023-03-22T00:12:06;97178.19;;;7.05;88.30
49515;BME280;35415;47.870;16.058;2023-03-22T00:14:34;97241.38;;;7.28;87.92
49515;BME280;35415;47.870;16.058;2023-03-22T00:17:02;97234.53;;;7.37;87.99
49515;BME280;35415;47.870;16.058;2023-03-22T00:19:30;97249.53;;;7.38;88.26
49515;BME280;35415;47.870;16.058;2023-03-22T00:22:00;97169.00;;;6.96;88.22
49515;BME280;35415;47.870;16.058;2023-03-22T00:24:30;97182.44;;;7.01;88.10
49515;BME280;35415;47.870;16.058;2023-03-22T00:26:58;97209.03;;;7.29;88.69
49515;BME280;35415;47.870;16.058;2023-03-22T00:29:26;97176.84;;;7.02;88.34
49515;BME280;35415;47.870;16.058;2023-03-22T00:31:56;97227.56;;;7.36;88.37
49515;BME280;35415;47.870;16.058;2023-03-22T00:34:24;97160.22;;;7.00;88.34
49515;BME280;35415;47.870;16.058;2023-03-22T00:36:54;97194.28;;;7.27;88.21
49515;BME280;35415;47.870;16.058;2023-03-22T00:39:24;97195.09;;;7.27;88.51
49515;BME280;35415;47.870;16.058;2023-03-22T00:41:54;97147.84;;;6.94;87.97
49515;BME280;35415;47.870;16.058;2023-03-22T00:44:21;97207.72;;;7.32;88.10
49515;BME280;35415;47.870;16.058;2023-03-22T00:46:49;97121.28;;;6.87;88.11
49515;BME280;35415;47.870;16.058;2023-03-22T00:49:16;97174.44;;;7.22;87.89
49515;BME280;35415;47.870;16.058;2023-03-22T00:51:44;97207.31;;;7.40;87.96
49515;BME280;35415;47.870;16.058;2023-03-22T00:54:12;97208.34;;;7.39;88.25
49515;BME280;35415;47.870;16.058;2023-03-22T00:56:42;97189.00;;;7.32;88.06
49515;BME280;35415;47.870;16.058;2023-03-22T00:59:13;97169.91;;;7.23;88.06
49515;BME280;35415;47.870;16.058;2023-03-22T01:01:41;97148.22;;;7.03;87.98
49515;BME280;35415;47.870;16.058;2023-03-22T01:04:09;97197.41;;;7.40;87.51
49515;BME280;35415;47.870;16.058;2023-03-22T01:06:43;97147.34;;;6.97;88.01
49515;BME280;35415;47.870;16.058;2023-03-22T01:09:11;97196.81;;;7.38;88.06
49515;BME280;35415;47.870;16.058;2023-03-22T01:11:42;97141.81;;;7.04;87.70
49515;BME280;35415;47.870;16.058;2023-03-22T01:14:10;97193.22;;;7.28;87.81
49515;BME280;35415;47.870;16.058;2023-03-22T01:16:38;97189.00;;;7.32;88.01
49515;BME280;35415;47.870;16.058;2023-03-22T01:19:06;97182.47;;;7.22;88.77
49515;BME280;35415;47.870;16.058;2023-03-22T01:21:34;97196.97;;;7.27;88.29
49515;BME280;35415;47.870;16.058;2023-03-22T01:24:01;97144.28;;;6.88;88.62
49515;BME280;35415;47.870;16.058;2023-03-22T01:26:28;97192.13;;;7.23;88.55
49515;BME280;35415;47.870;16.058;2023-03-22T01:28:57;97117.47;;;6.61;89.16
49515;BME280;35415;47.870;16.058;2023-03-22T01:31:25;97180.88;;;7.05;89.54
49515;BME280;35415;47.870;16.058;2023-03-22T01:33:52;97126.59;;;6.66;89.70
49515;BME280;35415;47.870;16.058;2023-03-22T01:36:20;97187.13;;;7.10;89.79
49515;BME280;35415;47.870;16.058;2023-03-22T01:38:47;97163.72;;;7.01;90.19
49515;BME280;35415;47.870;16.058;2023-03-22T01:41:15;97133.41;;;6.73;90.54
49515;BME280;35415;47.870;16.058;2023-03-22T01:43:43;97109.69;;;6.60;90.50
49515;BME280;35415;47.870;16.058;2023-03-22T01:46:12;97190.28;;;7.07;90.64
49515;BME280;35415;47.870;16.058;2023-03-22T01:48:41;97154.25;;;6.93;90.46
49515;BME280;35415;47.870;16.058;2023-03-22T01:51:12;97183.31;;;7.06;90.85
49515;BME280;35415;47.870;16.058;2023-03-22T01:53:46;97091.94;;;6.54;90.53
49515;BME280;35415;47.870;16.058;2023-03-22T01:56:16;97106.72;;;6.56;90.83
49515;BME280;35415;47.870;16.058;2023-03-22T01:58:46;97167.44;;;7.00;91.00
49515;BME280;35415;47.870;16.058;2023-03-22T02:01:15;97159.13;;;6.79;90.71
49515;BME280;35415;47.870;16.058;2023-03-22T02:03:50;97125.97;;;6.58;90.67
49515;BME280;35415;47.870;16.058;2023-03-22T02:06:21;97123.63;;;6.62;90.81
49515;BME280;35415;47.870;16.058;2023-03-22T02:08:50;97147.88;;;6.77;90.90
49515;BME280;35415;47.870;16.058;2023-03-22T02:11:28;97146.19;;;6.71;90.66
49515;BME280;35415;47.870;16.058;2023-03-22T02:14:33;97145.38;;;6.71;90.98
49515;BME280;35415;47.870;16.058;2023-03-22T02:17:18;97137.53;;;6.64;90.90
49515;BME280;35415;47.870;16.058;2023-03-22T02:20:18;97097.31;;;6.37;91.52
49515;BME280;35415;47.870;16.058;2023-03-22T02:23:21;97167.16;;;6.79;91.42
49515;BME280;35415;47.870;16.058;2023-03-22T02:26:19;97183.38;;;6.89;91.20
49515;BME280;35415;47.870;16.058;2023-03-22T02:28:55;97143.47;;;6.49;91.45
49515;BME280;35415;47.870;16.058;2023-03-22T02:31:55;97185.38;;;6.82;90.98
49515;BME280;35415;47.870;16.058;2023-03-22T02:37:43;97185.00;;;6.74;91.57
49515;BME280;35415;47.870;16.058;2023-03-22T02:40:21;97197.94;;;6.65;92.69
49515;BME280;35415;47.870;16.058;2023-03-22T02:42:55;97176.25;;;6.61;92.93
49515;BME280;35415;47.870;16.058;2023-03-22T02:45:29;97151.16;;;6.46;93.49
49515;BME280;35415;47.870;16.058;2023-03-22T02:48:04;97107.13;;;6.15;93.57
49515;BME280;35415;47.870;16.058;2023-03-22T02:50:38;97113.75;;;6.12;93.18
49515;BME280;35415;47.870;16.058;2023-03-22T02:53:13;97160.47;;;6.43;93.35
49515;BME280;35415;47.870;16.058;2023-03-22T02:55:46;97168.06;;;6.34;93.99
49515;BME280;35415;47.870;16.058;2023-03-22T02:58:18;97188.38;;;6.52;94.29
49515;BME280;35415;47.870;16.058;2023-03-22T03:00:58;97137.00;;;6.12;94.15
49515;BME280;35415;47.870;16.058;2023-03-22T03:03:29;97140.66;;;6.22;94.28
49515;BME280;35415;47.870;16.058;2023-03-22T03:06:01;97179.66;;;6.40;94.72
49515;BME280;35415;47.870;16.058;2023-03-22T03:08:31;97194.41;;;6.43;93.89
49515;BME280;35415;47.870;16.058;2023-03-22T03:11:01;97182.00;;;6.37;94.88
49515;BME280;35415;47.870;16.058;2023-03-22T03:13:28;97161.09;;;6.17;94.36
49515;BME280;35415;47.870;16.058;2023-03-22T03:15:57;97101.34;;;5.72;94.87
49515;BME280;35415;47.870;16.058;2023-03-22T03:18:36;97122.72;;;5.89;94.95
49515;BME280;35415;47.870;16.058;2023-03-22T03:21:19;97165.47;;;6.06;95.12
49515;BME280;35415;47.870;16.058;2023-03-22T03:23:54;97187.44;;;6.25;95.58
49515;BME280;35415;47.870;16.058;2023-03-22T03:26:31;97164.81;;;5.99;95.26
49515;BME280;35415;47.870;16.058;2023-03-22T03:29:06;97108.66;;;5.65;95.63
49515;BME280;35415;47.870;16.058;2023-03-22T03:31:42;97181.72;;;6.04;95.98
49515;BME280;35415;47.870;16.058;2023-03-22T03:34:15;97191.81;;;6.02;96.12
49515;BME280;35415;47.870;16.058;2023-03-22T03:36:52;97204.06;;;6.15;96.17
49515;BME280;35415;47.870;16.058;2023-03-22T03:39:25;97119.75;;;5.57;96.57
49515;BME280;35415;47.870;16.058;2023-03-22T03:41:56;97153.81;;;5.84;97.07
49515;BME280;35415;47.870;16.058;2023-03-22T03:44:26;97156.38;;;5.90;97.24
49515;BME280;35415;47.870;16.058;2023-03-22T03:46:56;97194.69;;;6.13;97.26
49515;BME280;35415;47.870;16.058;2023-03-22T03:49:24;97109.50;;;5.54;96.92
49515;BME280;35415;47.870;16.058;2023-03-22T03:51:53;97134.06;;;5.68;97.20
49515;BME280;35415;47.870;16.058;2023-03-22T03:54:21;97145.16;;;5.77;97.37
49515;BME280;35415;47.870;16.058;2023-03-22T03:56:49;97182.34;;;5.95;97.61
49515;BME280;35415;47.870;16.058;2023-03-22T03:59:18;97120.94;;;5.66;98.00
49515;BME280;35415;47.870;16.058;2023-03-22T04:01:45;97191.69;;;6.09;97.39
49515;BME280;35415;47.870;16.058;2023-03-22T04:04:17;97134.16;;;5.73;97.88
49515;BME280;35415;47.870;16.058;2023-03-22T04:06:52;97196.56;;;6.12;97.88
49515;BME280;35415;47.870;16.058;2023-03-22T04:09:24;97102.25;;;5.50;97.81
49515;BME280;35415;47.870;16.058;2023-03-22T04:11:52;97101.66;;;5.48;97.54
49515;BME280;35415;47.870;16.058;2023-03-22T04:14:22;97156.38;;;5.90;97.67
49515;BME280;35415;47.870;16.058;2023-03-22T04:16:51;97198.16;;;6.13;97.98
49515;BME280;35415;47.870;16.058;2023-03-22T04:19:19;97190.41;;;6.12;97.65
49515;BME280;35415;47.870;16.058;2023-03-22T04:21:47;97173.78;;;5.93;97.97
49515;BME280;35415;47.870;16.058;2023-03-22T04:24:14;97195.97;;;6.10;98.04
49515;BME280;35415;47.870;16.058;2023-03-22T04:26:43;97195.00;;;6.16;97.82
49515;BME280;35415;47.870;16.058;2023-03-22T04:29:12;97135.38;;;5.82;97.71
49515;BME280;35415;47.870;16.058;2023-03-22T04:31:42;97184.88;;;6.18;98.03
49515;BME280;35415;47.870;16.058;2023-03-22T04:34:09;97102.28;;;5.66;97.94
49515;BME280;35415;47.870;16.058;2023-03-22T04:36:39;97194.06;;;6.22;97.71
49515;BME280;35415;47.870;16.058;2023-03-22T04:39:08;97188.13;;;6.20;97.39
49515;BME280;35415;47.870;16.058;2023-03-22T04:41:38;97186.75;;;6.18;97.76
49515;BME280;35415;47.870;16.058;2023-03-22T04:44:08;97135.03;;;5.90;97.27
49515;BME280;35415;47.870;16.058;2023-03-22T04:46:38;97145.31;;;5.87;97.31
49515;BME280;35415;47.870;16.058;2023-03-22T04:49:10;97191.84;;;6.19;97.35
49515;BME280;35415;47.870;16.058;2023-03-22T04:51:39;97168.28;;;5.99;97.28
49515;BME280;35415;47.870;16.058;2023-03-22T04:54:07;97179.91;;;6.22;97.16
49515;BME280;35415;47.870;16.058;2023-03-22T04:56:35;97191.16;;;6.24;97.56
49515;BME280;35415;47.870;16.058;2023-03-22T04:59:05;97170.25;;;6.21;97.72
49515;BME280;35415;47.870;16.058;2023-03-22T05:01:32;97104.56;;;5.74;97.53
49515;BME280;35415;47.870;16.058;2023-03-22T05:03:59;97179.97;;;6.27;97.84
49515;BME280;35415;47.870;16.058;2023-03-22T05:06:28;97153.56;;;6.14;97.92
49515;BME280;35415;47.870;16.058;2023-03-22T05:08:58;97191.78;;;6.31;97.73
49515;BME280;35415;47.870;16.058;2023-03-22T05:11:27;97176.56;;;6.31;97.51
49515;BME280;35415;47.870;16.058;2023-03-22T05:13:54;97174.72;;;6.32;97.59
49515;BME280;35415;47.870;16.058;2023-03-22T05:16:21;97137.81;;;6.12;97.48
49515;BME280;35415;47.870;16.058;2023-03-22T05:18:51;97077.88;;;5.74;97.43
49515;BME280;35415;47.870;16.058;2023-03-22T05:21:20;97171.41;;;6.25;97.32
49515;BME280;35415;47.870;16.058;2023-03-22T05:23:56;97114.25;;;5.92;97.40
49515;BME280;35415;47.870;16.058;2023-03-22T05:26:24;97134.25;;;6.07;97.25
49515;BME280;35415;47.870;16.058;2023-03-22T05:28:54;97181.53;;;6.40;97.22
49515;BME280;35415;47.870;16.058;2023-03-22T05:31:22;97173.28;;;6.41;97.27
49515;BME280;35415;47.870;16.058;2023-03-22T05:33:51;97182.47;;;6.33;97.24
49515;BME280;35415;47.870;16.058;2023-03-22T05:36:20;97179.81;;;6.33;97.51
49515;BME280;35415;47.870;16.058;2023-03-22T05:38:48;97116.59;;;6.06;97.22
49515;BME280;35415;47.870;16.058;2023-03-22T05:41:17;97122.03;;;6.11;97.19
49515;BME280;35415;47.870;16.058;2023-03-22T05:43:45;97106.06;;;5.99;97.03
49515;BME280;35415;47.870;16.058;2023-03-22T05:46:13;97198.75;;;6.49;97.09
49515;BME280;35415;47.870;16.058;2023-03-22T05:48:42;97182.91;;;6.42;96.78
49515;BME280;35415;47.870;16.058;2023-03-22T05:51:14;97192.69;;;6.53;96.63
49515;BME280;35415;47.870;16.058;2023-03-22T05:53:45;97194.66;;;6.41;96.88
49515;BME280;35415;47.870;16.058;2023-03-22T05:56:13;97113.28;;;5.87;96.76
49515;BME280;35415;47.870;16.058;2023-03-22T05:58:41;97204.44;;;6.52;97.03
49515;BME280;35415;47.870;16.058;2023-03-22T06:01:11;97142.56;;;6.10;96.87
49515;BME280;35415;47.870;16.058;2023-03-22T06:03:41;97185.16;;;6.33;97.08
49515;BME280;35415;47.870;16.058;2023-03-22T06:06:09;97177.81;;;6.41;96.83
49515;BME280;35415;47.870;16.058;2023-03-22T06:08:36;97133.75;;;6.10;97.09
49515;BME280;35415;47.870;16.058;2023-03-22T06:11:06;97129.97;;;6.06;96.64
49515;BME280;35415;47.870;16.058;2023-03-22T06:13:37;97179.31;;;6.37;96.71
49515;BME280;35415;47.870;16.058;2023-03-22T06:16:07;97220.00;;;6.72;96.63
49515;BME280;35415;47.870;16.058;2023-03-22T06:18:38;97220.31;;;6.76;96.91
49515;BME280;35415;47.870;16.058;2023-03-22T06:21:10;97223.69;;;6.71;96.62
49515;BME280;35415;47.870;16.058;2023-03-22T06:23:37;97184.53;;;6.60;96.75
49515;BME280;35415;47.870;16.058;2023-03-22T06:26:05;97195.53;;;6.63;96.54
49515;BME280;35415;47.870;16.058;2023-03-22T06:28:36;97229.63;;;6.90;96.65
49515;BME280;35415;47.870;16.058;2023-03-22T06:31:07;97141.66;;;6.38;96.12
49515;BME280;35415;47.870;16.058;2023-03-22T06:33:35;97208.06;;;6.80;96.42
49515;BME280;35415;47.870;16.058;2023-03-22T06:36:03;97234.53;;;6.98;96.32
49515;BME280;35415;47.870;16.058;2023-03-22T06:38:32;97234.34;;;7.05;95.96
49515;BME280;35415;47.870;16.058;2023-03-22T06:41:00;97232.75;;;7.04;96.21
49515;BME280;35415;47.870;16.058;2023-03-22T06:43:27;97205.06;;;6.93;95.89
49515;BME280;35415;47.870;16.058;2023-03-22T06:45:54;97159.16;;;6.62;95.96
49515;BME280;35415;47.870;16.058;2023-03-22T06:48:24;97160.94;;;6.74;95.54
49515;BME280;35415;47.870;16.058;2023-03-22T06:50:55;97247.00;;;7.26;95.51
49515;BME280;35415;47.870;16.058;2023-03-22T06:53:24;97156.16;;;6.76;95.22
49515;BME280;35415;47.870;16.058;2023-03-22T06:55:51;97186.97;;;7.00;95.31
49515;BME280;35415;47.870;16.058;2023-03-22T06:58:18;97216.75;;;7.26;95.12
49515;BME280;35415;47.870;16.058;2023-03-22T07:00:46;97231.63;;;7.38;95.41
49515;BME280;35415;47.870;16.058;2023-03-22T07:03:13;97238.44;;;7.46;95.03
49515;BME280;35415;47.870;16.058;2023-03-22T07:05:42;97207.97;;;7.30;95.12
49515;BME280;35415;47.870;16.058;2023-03-22T07:08:10;97241.47;;;7.54;94.73
49515;BME280;35415;47.870;16.058;2023-03-22T07:10:38;97247.47;;;7.62;94.57
49515;BME280;35415;47.870;16.058;2023-03-22T07:13:06;97232.97;;;7.58;94.74
49515;BME280;35415;47.870;16.058;2023-03-22T07:15:33;97236.31;;;7.70;94.43
49515;BME280;35415;47.870;16.058;2023-03-22T07:18:01;97235.31;;;7.76;94.20
49515;BME280;35415;47.870;16.058;2023-03-22T07:20:34;97247.75;;;7.87;94.26
49515;BME280;35415;47.870;16.058;2023-03-22T07:23:06;97242.78;;;7.96;93.82
49515;BME280;35415;47.870;16.058;2023-03-22T07:25:35;97208.00;;;7.74;93.87
49515;BME280;35415;47.870;16.058;2023-03-22T07:28:02;97243.44;;;8.08;93.44
49515;BME280;35415;47.870;16.058;2023-03-22T07:30:33;97186.13;;;7.82;93.43
49515;BME280;35415;47.870;16.058;2023-03-22T07:33:02;97209.81;;;7.95;92.92
49515;BME280;35415;47.870;16.058;2023-03-22T07:35:30;97246.63;;;8.32;93.16
49515;BME280;35415;47.870;16.058;2023-03-22T07:38:01;97148.66;;;7.87;93.00
49515;BME280;35415;47.870;16.058;2023-03-22T07:40:31;97238.81;;;8.52;93.57
49515;BME280;35415;47.870;16.058;2023-03-22T07:42:59;97209.56;;;8.51;92.70
49515;BME280;35415;47.870;16.058;2023-03-22T07:45:29;97209.41;;;8.62;92.54
49515;BME280;35415;47.870;16.058;2023-03-22T07:47:56;97226.50;;;8.88;91.74
49515;BME280;35415;47.870;16.058;2023-03-22T07:50:24;97226.94;;;9.12;90.62
49515;BME280;35415;47.870;16.058;2023-03-22T07:52:51;97158.16;;;8.96;90.04
49515;BME280;35415;47.870;16.058;2023-03-22T07:55:20;97168.50;;;9.24;89.86
49515;BME280;35415;47.870;16.058;2023-03-22T07:57:50;97180.41;;;9.49;88.82
49515;BME280;35415;47.870;16.058;2023-03-22T08:00:18;97157.31;;;9.48;88.34
49515;BME280;35415;47.870;16.058;2023-03-22T08:02:46;97209.06;;;10.01;87.44
49515;BME280;35415;47.870;16.058;2023-03-22T08:05:13;97197.00;;;10.18;86.96
49515;BME280;35415;47.870;16.058;2023-03-22T08:07:41;97183.91;;;10.27;86.08
49515;BME280;35415;47.870;16.058;2023-03-22T08:10:09;97200.03;;;10.52;85.76
49515;BME280;35415;47.870;16.058;2023-03-22T08:12:39;97197.63;;;10.66;84.69
49515;BME280;35415;47.870;16.058;2023-03-22T08:15:10;97200.56;;;10.85;84.71
49515;BME280;35415;47.870;16.058;2023-03-22T08:17:40;97205.66;;;11.07;84.39
49515;BME280;35415;47.870;16.058;2023-03-22T08:20:09;97162.31;;;11.08;83.64
49515;BME280;35415;47.870;16.058;2023-03-22T08:22:38;97176.50;;;11.34;82.08
49515;BME280;35415;47.870;16.058;2023-03-22T08:25:08;97200.09;;;11.68;81.55
49515;BME280;35415;47.870;16.058;2023-03-22T08:27:35;97213.25;;;11.85;80.23
49515;BME280;35415;47.870;16.058;2023-03-22T08:30:04;97190.03;;;11.94;80.86
49515;BME280;35415;47.870;16.058;2023-03-22T08:32:33;97118.41;;;11.78;78.93
49515;BME280;35415;47.870;16.058;2023-03-22T08:35:03;97109.44;;;11.97;77.57
49515;BME280;35415;47.870;16.058;2023-03-22T08:37:31;97148.72;;;12.43;75.25
49515;BME280;35415;47.870;16.058;2023-03-22T08:39:59;97138.66;;;12.53;71.64
49515;BME280;35415;47.870;16.058;2023-03-22T08:42:26;97141.88;;;12.84;70.75
49515;BME280;35415;47.870;16.058;2023-03-22T08:44:56;97171.78;;;13.22;70.11
49515;BME280;35415;47.870;16.058;2023-03-22T08:47:24;97168.41;;;13.35;69.45
49515;BME280;35415;47.870;16.058;2023-03-22T08:49:52;97187.53;;;13.63;68.33
49515;BME280;35415;47.870;16.058;2023-03-22T08:52:27;97190.50;;;13.85;68.18
49515;BME280;35415;47.870;16.058;2023-03-22T08:54:55;97170.88;;;13.98;66.79
49515;BME280;35415;47.870;16.058;2023-03-22T08:57:22;97168.25;;;14.12;66.87
49515;BME280;35415;47.870;16.058;2023-03-22T08:59:52;97134.53;;;14.04;64.50
49515;BME280;35415;47.870;16.058;2023-03-22T09:02:21;97161.56;;;14.42;63.55
49515;BME280;35415;47.870;16.058;2023-03-22T09:04:48;97156.72;;;14.58;63.71
49515;BME280;35415;47.870;16.058;2023-03-22T09:07:17;97106.41;;;14.38;63.22
49515;BME280;35415;47.870;16.058;2023-03-22T09:09:48;97135.03;;;14.77;61.50
49515;BME280;35415;47.870;16.058;2023-03-22T09:12:23;97141.06;;;14.87;60.09
49515;BME280;35415;47.870;16.058;2023-03-22T09:14:50;97177.44;;;15.27;60.67
49515;BME280;35415;47.870;16.058;2023-03-22T09:17:18;97163.91;;;15.27;58.74
49515;BME280;35415;47.870;16.058;2023-03-22T09:19:46;97170.25;;;15.37;54.58
49515;BME280;35415;47.870;16.058;2023-03-22T09:22:14;97142.94;;;15.47;55.64
49515;BME280;35415;47.870;16.058;2023-03-22T09:24:43;97160.94;;;15.70;53.81
49515;BME280;35415;47.870;16.058;2023-03-22T09:27:10;97175.91;;;15.81;51.23
49515;BME280;35415;47.870;16.058;2023-03-22T09:29:37;97168.94;;;15.89;51.65
49515;BME280;35415;47.870;16.058;2023-03-22T09:32:04;97178.16;;;16.02;51.83
49515;BME280;35415;47.870;16.058;2023-03-22T09:34:32;97161.47;;;16.08;49.38
49515;BME280;35415;47.870;16.058;2023-03-22T09:37:00;97118.69;;;15.91;50.22
49515;BME280;35415;47.870;16.058;2023-03-22T09:39:29;97143.41;;;16.26;49.73
49515;BME280;35415;47.870;16.058;2023-03-22T09:42:03;97127.34;;;16.30;49.19
49515;BME280;35415;47.870;16.058;2023-03-22T09:44:33;97117.28;;;16.30;49.68
49515;BME280;35415;47.870;16.058;2023-03-22T09:47:06;97065.78;;;16.16;48.56
49515;BME280;35415;47.870;16.058;2023-03-22T09:49:37;97061.28;;;16.34;48.73
49515;BME280;35415;47.870;16.058;2023-03-22T09:52:11;97131.78;;;16.93;49.16
49515;BME280;35415;47.870;16.058;2023-03-22T09:54:40;97129.28;;;17.05;51.14
49515;BME280;35415;47.870;16.058;2023-03-22T09:57:16;97060.63;;;16.82;47.09
49515;BME280;35415;47.870;16.058;2023-03-22T09:59:51;97126.38;;;17.32;45.14
49515;BME280;35415;47.870;16.058;2023-03-22T10:02:34;97108.63;;;17.35;44.72
49515;BME280;35415;47.870;16.058;2023-03-22T10:05:11;97088.50;;;17.36;43.70
49515;BME280;35415;47.870;16.058;2023-03-22T10:07:58;97104.13;;;17.70;42.90
49515;BME280;35415;47.870;16.058;2023-03-22T10:10:32;97106.06;;;17.95;38.93
49515;BME280;35415;47.870;16.058;2023-03-22T10:13:03;97076.28;;;17.90;39.80
49515;BME280;35415;47.870;16.058;2023-03-22T10:15:35;97033.56;;;17.73;39.26
49515;BME280;35415;47.870;16.058;2023-03-22T10:18:06;97043.31;;;17.92;39.16
49515;BME280;35415;47.870;16.058;2023-03-22T10:20:38;97046.53;;;18.02;36.48
49515;BME280;35415;47.870;16.058;2023-03-22T10:23:12;97076.13;;;18.39;36.96
49515;BME280;35415;47.870;16.058;2023-03-22T10:25:40;97085.41;;;18.55;36.35
49515;BME280;35415;47.870;16.058;2023-03-22T10:28:18;97078.31;;;18.62;38.46
49515;BME280;35415;47.870;16.058;2023-03-22T10:30:51;97097.19;;;18.93;36.86
49515;BME280;35415;47.870;16.058;2023-03-22T10:33:27;97054.75;;;18.75;36.10
49515;BME280;35415;47.870;16.058;2023-03-22T10:35:59;97044.34;;;18.77;36.97
49515;BME280;35415;47.870;16.058;2023-03-22T10:38:29;97054.41;;;18.85;35.54
49515;BME280;35415;47.870;16.058;2023-03-22T10:40:58;97091.66;;;19.19;36.47
49515;BME280;35415;47.870;16.058;2023-03-22T10:43:31;97024.25;;;18.90;36.14
49515;BME280;35415;47.870;16.058;2023-03-22T10:46:02;97062.72;;;19.27;34.96
49515;BME280;35415;47.870;16.058;2023-03-22T10:48:34;97054.09;;;19.25;35.83
49515;BME280;35415;47.870;16.058;2023-03-22T10:51:02;97047.94;;;19.37;37.85
49515;BME280;35415;47.870;16.058;2023-03-22T10:53:36;97075.75;;;19.60;39.87
49515;BME280;35415;47.870;16.058;2023-03-22T10:56:09;97031.97;;;19.47;39.88
49515;BME280;35415;47.870;16.058;2023-03-22T10:58:38;97057.28;;;19.86;39.27
49515;BME280;35415;47.870;16.058;2023-03-22T11:01:08;97031.47;;;19.83;39.89
49515;BME280;35415;47.870;16.058;2023-03-22T11:03:37;97062.34;;;20.17;40.33
49515;BME280;35415;47.870;16.058;2023-03-22T11:06:07;97073.22;;;20.38;40.27
49515;BME280;35415;47.870;16.058;2023-03-22T11:08:42;97095.47;;;20.69;39.19
49515;BME280;35415;47.870;16.058;2023-03-22T11:11:16;97074.97;;;20.76;39.23
49515;BME280;35415;47.870;16.058;2023-03-22T11:13:53;97089.63;;;21.04;39.28
49515;BME280;35415;47.870;16.058;2023-03-22T11:16:22;97078.00;;;21.07;38.05
49515;BME280;35415;47.870;16.058;2023-03-22T11:18:50;97092.19;;;21.34;36.92
49515;BME280;35415;47.870;16.058;2023-03-22T11:21:18;97066.31;;;21.31;36.53
49515;BME280;35415;47.870;16.058;2023-03-22T11:23:54;97037.59;;;21.25;37.78
49515;BME280;35415;47.870;16.058;2023-03-22T11:26:30;97087.84;;;21.69;36.78
49515;BME280;35415;47.870;16.058;2023-03-22T11:29:12;97064.47;;;21.72;37.43
49515;BME280;35415;47.870;16.058;2023-03-22T11:31:55;97050.19;;;21.78;37.75
49515;BME280;35415;47.870;16.058;2023-03-22T11:34:25;97065.31;;;22.00;35.68
49515;BME280;35415;47.870;16.058;2023-03-22T11:36:53;97043.78;;;21.86;36.13
49515;BME280;35415;47.870;16.058;2023-03-22T11:39:23;97028.16;;;21.87;35.57
49515;BME280;35415;47.870;16.058;2023-03-22T11:41:54;97015.50;;;21.82;34.79
49515;BME280;35415;47.870;16.058;2023-03-22T11:44:27;97052.97;;;22.18;35.51
49515;BME280;35415;47.870;16.058;2023-03-22T11:47:03;97055.13;;;22.25;34.33
49515;BME280;35415;47.870;16.058;2023-03-22T11:49:39;97008.41;;;21.93;35.96
49515;BME280;35415;47.870;16.058;2023-03-22T11:52:15;97032.84;;;22.27;34.88
49515;BME280;35415;47.870;16.058;2023-03-22T11:54:44;97026.31;;;22.31;33.93
49515;BME280;35415;47.870;16.058;2023-03-22T11:57:14;96982.34;;;22.12;34.66
49515;BME280;35415;47.870;16.058;2023-03-22T11:59:52;97049.19;;;22.67;37.50
49515;BME280;35415;47.870;16.058;2023-03-22T12:02:35;97051.69;;;22.72;34.50
49515;BME280;35415;47.870;16.058;2023-03-22T12:05:11;96961.78;;;22.34;33.81
49515;BME280;35415;47.870;16.058;2023-03-22T12:07:49;96965.81;;;22.52;34.12
49515;BME280;35415;47.870;16.058;2023-03-22T12:10:20;97031.06;;;23.06;37.28
49515;BME280;35415;47.870;16.058;2023-03-22T12:12:52;96975.09;;;22.79;33.49
49515;BME280;35415;47.870;16.058;2023-03-22T12:15:23;97015.91;;;22.96;32.19
49515;BME280;35415;47.870;16.058;2023-03-22T12:17:59;97036.19;;;23.07;31.11
49515;BME280;35415;47.870;16.058;2023-03-22T12:20:35;96995.31;;;22.87;32.41
49515;BME280;35415;47.870;16.058;2023-03-22T12:23:13;96982.75;;;22.86;32.97
49515;BME280;35415;47.870;16.058;2023-03-22T12:25:49;96975.44;;;22.77;32.57
49515;BME280;35415;47.870;16.058;2023-03-22T12:28:24;96991.66;;;22.98;31.82
49515;BME280;35415;47.870;16.058;2023-03-22T12:30:56;97004.56;;;23.14;32.45
49515;BME280;35415;47.870;16.058;2023-03-22T12:33:29;97000.44;;;23.20;30.76
49515;BME280;35415;47.870;16.058;2023-03-22T12:36:01;96993.47;;;23.41;32.49
49515;BME280;35415;47.870;16.058;2023-03-22T12:38:38;96995.16;;;23.46;31.68
49515;BME280;35415;47.870;16.058;2023-03-22T12:41:10;96960.28;;;23.31;30.52
49515;BME280;35415;47.870;16.058;2023-03-22T12:43:49;97020.97;;;23.77;30.16
49515;BME280;35415;47.870;16.058;2023-03-22T12:46:22;96983.97;;;23.70;31.52
49515;BME280;35415;47.870;16.058;2023-03-22T12:48:51;97010.16;;;24.03;33.96
49515;BME280;35415;47.870;16.058;2023-03-22T12:51:20;96970.50;;;23.85;30.44
49515;BME280;35415;47.870;16.058;2023-03-22T12:53:50;96971.97;;;23.98;29.78
49515;BME280;35415;47.870;16.058;2023-03-22T12:56:20;96954.75;;;23.82;29.61
49515;BME280;35415;47.870;16.058;2023-03-22T12:58:52;96961.63;;;24.11;29.45
49515;BME280;35415;47.870;16.058;2023-03-22T13:01:29;96988.09;;;24.38;31.21
49515;BME280;35415;47.870;16.058;2023-03-22T13:03:58;96980.56;;;24.35;28.98
49515;BME280;35415;47.870;16.058;2023-03-22T13:06:32;96993.78;;;24.49;29.81
49515;BME280;35415;47.870;16.058;2023-03-22T13:09:11;96910.69;;;24.17;31.59
49515;BME280;35415;47.870;16.058;2023-03-22T13:11:42;96969.78;;;24.69;30.46
49515;BME280;35415;47.870;16.058;2023-03-22T13:14:53;96975.91;;;24.81;31.68
49515;BME280;35415;47.870;16.058;2023-03-22T13:17:45;96966.13;;;24.84;30.92
49515;BME280;35415;47.870;16.058;2023-03-22T13:20:25;96968.00;;;24.80;30.11